Monroeville, Ohio
Current Conditions -  °F | °C
As of 7:53 AM on Saturday 22 Nov 2014 (Local Time) from KPCW Reporting Station
Light Rain Light Rain  
Wind Chill: 25°   Ceiling: 2000
Heat Index: 34°   Visibility: 7mi
Dew Point: 30°   Wind: 12mph
Humidity: 87%   Direction: 190°S
Pressure: 30.16"   Gusts: NA
Location:  41.24°N, 82.7°W
Report Text: KPCW 221253Z AUTO 19010KT 7SM -RA BKN020 OVC065 01/M01 A3016 RMK AO2
Loading
Personal Weather Stations






























Interactive Weather Map New forecast layout! Learn more

10-Day Weather Forecast

Advertisements
Track Severe Weather on mobile